createdAt,value
2023-01-13T00:00:30.834Z,2.10
2023-01-13T00:01:30.728Z,1.60
2023-01-13T00:02:30.746Z,3.10
2023-01-13T00:03:30.690Z,1.00
2023-01-13T00:04:30.726Z,2.40
2023-01-13T00:05:30.660Z,2.20
2023-01-13T00:06:30.663Z,1.30
2023-01-13T00:07:30.628Z,2.30
2023-01-13T00:08:30.610Z,1.30
2023-01-13T00:09:30.618Z,1.40
2023-01-13T00:10:30.590Z,0.80
2023-01-13T00:11:30.588Z,2.00
2023-01-13T00:12:30.560Z,3.10
2023-01-13T00:13:30.548Z,0.70
2023-01-13T00:14:30.550Z,3.20
2023-01-13T00:15:30.527Z,1.30
2023-01-13T00:16:30.531Z,0.80
2023-01-13T00:17:30.495Z,3.20
2023-01-13T00:18:30.482Z,1.80
2023-01-13T00:19:30.475Z,1.80
2023-01-13T00:20:30.470Z,1.50
2023-01-13T00:21:30.463Z,1.10
2023-01-13T00:22:30.429Z,1.00
2023-01-13T00:23:30.416Z,1.80
2023-01-13T00:24:30.404Z,1.40
2023-01-13T00:25:30.408Z,2.10
2023-01-13T00:26:30.398Z,1.80
2023-01-13T00:27:30.366Z,2.10
2023-01-13T00:28:30.351Z,1.20
2023-01-13T00:29:30.341Z,1.50
2023-01-13T00:30:30.327Z,1.10
2023-01-13T00:31:30.488Z,1.70
2023-01-13T00:32:30.299Z,0.80
2023-01-13T00:33:30.286Z,0.90
2023-01-13T00:34:30.278Z,2.80
2023-01-13T00:35:30.268Z,2.30
2023-01-13T00:36:30.268Z,1.20
2023-01-13T00:37:30.273Z,1.20
2023-01-13T00:38:30.219Z,1.30
2023-01-13T00:39:30.205Z,1.70
2023-01-13T00:40:30.191Z,1.00
2023-01-13T00:41:30.212Z,1.40
2023-01-13T00:42:30.172Z,1.30
2023-01-13T00:43:30.154Z,1.50
2023-01-13T00:44:30.142Z,1.80
2023-01-13T00:45:30.132Z,2.20
2023-01-13T00:46:30.169Z,1.10
2023-01-13T00:47:30.101Z,1.10
2023-01-13T00:48:30.088Z,1.80
2023-01-13T00:49:30.079Z,2.60
2023-01-13T00:50:30.067Z,2.50
2023-01-13T00:51:30.054Z,1.80
2023-01-13T00:52:30.048Z,2.40
2023-01-13T00:53:30.029Z,1.00
2023-01-13T00:54:30.011Z,0.70
2023-01-13T00:55:30.000Z,2.10
2023-01-13T00:56:41.240Z,2.30
2023-01-13T00:57:31.003Z,0.70
2023-01-13T00:58:29.959Z,2.90
2023-01-13T00:59:29.938Z,2.00
2023-01-13T01:00:29.985Z,1.50
2023-01-13T01:01:30.047Z,1.20
2023-01-13T01:02:29.946Z,1.00
2023-01-13T01:03:29.898Z,0.90
2023-01-13T01:04:29.875Z,0.90
2023-01-13T01:05:29.861Z,2.60
2023-01-13T01:06:29.861Z,1.20
2023-01-13T01:07:29.856Z,1.60
2023-01-13T01:08:29.825Z,0.40
2023-01-13T01:09:29.808Z,3.10
2023-01-13T01:10:29.793Z,2.40
2023-01-13T01:11:29.793Z,2.10
2023-01-13T01:12:29.782Z,1.40
2023-01-13T01:13:29.778Z,2.40
2023-01-13T01:14:29.740Z,3.70
2023-01-13T01:15:29.729Z,1.00
2023-01-13T01:16:29.820Z,2.00
2023-01-13T01:17:29.723Z,0.80
2023-01-13T01:18:29.692Z,1.30
2023-01-13T01:19:29.689Z,1.70
2023-01-13T01:20:29.675Z,1.70
2023-01-13T01:21:29.691Z,1.40
2023-01-13T01:22:29.645Z,0.90
2023-01-13T01:23:29.625Z,1.10
2023-01-13T01:24:29.620Z,1.20
2023-01-13T01:25:29.593Z,3.90
2023-01-13T01:26:29.603Z,1.60
2023-01-13T01:27:29.595Z,1.40
2023-01-13T01:28:29.559Z,1.70
2023-01-13T01:29:29.561Z,2.80
2023-01-13T01:30:29.532Z,0.70
2023-01-13T01:31:29.533Z,1.70
2023-01-13T01:32:29.517Z,1.90
2023-01-13T01:33:29.486Z,1.20
2023-01-13T01:34:29.473Z,1.60
2023-01-13T01:35:29.466Z,3.00
2023-01-13T01:36:29.616Z,0.70
2023-01-13T01:37:29.453Z,0.50
2023-01-13T01:38:29.426Z,1.10
2023-01-13T01:39:29.407Z,1.00
2023-01-13T01:40:29.398Z,1.60
2023-01-13T01:41:29.384Z,0.90
2023-01-13T01:42:29.383Z,2.00
2023-01-13T01:43:29.355Z,1.20
2023-01-13T01:44:29.342Z,1.30
2023-01-13T01:45:29.349Z,1.60
2023-01-13T01:46:29.349Z,1.70
2023-01-13T01:47:29.322Z,1.80
2023-01-13T01:48:29.308Z,1.80
2023-01-13T01:49:29.288Z,0.70
2023-01-13T01:50:29.262Z,1.40
2023-01-13T01:51:29.256Z,1.70
2023-01-13T01:52:29.239Z,2.60
2023-01-13T01:53:29.265Z,1.50
2023-01-13T01:54:29.215Z,2.10
2023-01-13T01:55:29.196Z,1.80
2023-01-13T01:56:29.193Z,1.00
2023-01-13T01:57:29.177Z,1.40
2023-01-13T01:58:29.175Z,2.20
2023-01-13T01:59:29.145Z,1.60
2023-01-13T02:00:29.178Z,1.20
2023-01-13T02:01:29.427Z,0.70
2023-01-13T02:02:29.166Z,1.00
2023-01-13T02:03:29.112Z,2.00
2023-01-13T02:04:29.078Z,0.90
2023-01-13T02:05:29.065Z,1.20
2023-01-13T02:06:29.050Z,1.20
2023-01-13T02:07:29.037Z,1.80
2023-01-13T02:08:29.039Z,1.40
2023-01-13T02:09:29.019Z,1.40
2023-01-13T02:10:29.001Z,1.80
2023-01-13T02:11:28.989Z,0.90
2023-01-13T02:12:28.976Z,2.10
2023-01-13T02:13:28.973Z,1.30
2023-01-13T02:14:28.953Z,1.20
2023-01-13T02:15:28.938Z,1.20
2023-01-13T02:16:29.082Z,2.20
2023-01-13T02:17:28.933Z,1.90
2023-01-13T02:18:28.912Z,1.50
2023-01-13T02:19:28.910Z,0.90
2023-01-13T02:20:28.884Z,1.10
2023-01-13T02:21:28.864Z,1.50
2023-01-13T02:22:28.846Z,2.20
2023-01-13T02:23:28.842Z,1.50
2023-01-13T02:24:28.819Z,1.80
2023-01-13T02:25:28.812Z,3.20
2023-01-13T02:26:28.791Z,1.50
2023-01-13T02:27:28.783Z,2.20
2023-01-13T02:28:28.787Z,0.80
2023-01-13T02:29:28.751Z,1.50
2023-01-13T02:30:28.751Z,1.40
2023-01-13T02:31:28.757Z,1.30
2023-01-13T02:32:28.718Z,0.80
2023-01-13T02:33:28.743Z,1.50
2023-01-13T02:34:28.693Z,1.10
2023-01-13T02:35:28.686Z,1.60
2023-01-13T02:36:28.754Z,1.30
2023-01-13T02:37:28.668Z,0.50
2023-01-13T02:38:28.663Z,0.80
2023-01-13T02:39:28.627Z,0.60
2023-01-13T02:40:28.610Z,1.80
2023-01-13T02:41:28.597Z,0.30
2023-01-13T02:42:28.587Z,1.00
2023-01-13T02:43:28.589Z,1.10
2023-01-13T02:44:28.561Z,1.40
2023-01-13T02:45:28.603Z,0.90
2023-01-13T02:46:28.538Z,1.00
2023-01-13T02:47:28.523Z,0.80
2023-01-13T02:48:28.532Z,0.50
2023-01-13T02:49:28.520Z,2.50
2023-01-13T02:50:28.487Z,1.40
2023-01-13T02:51:28.473Z,0.70
2023-01-13T02:52:28.455Z,0.60
2023-01-13T02:53:28.442Z,1.40
2023-01-13T02:54:28.446Z,0.90
2023-01-13T02:55:28.419Z,1.20
2023-01-13T02:56:28.405Z,0.30
2023-01-13T02:57:28.392Z,1.10
2023-01-13T02:58:28.383Z,1.10
2023-01-13T02:59:28.371Z,2.70
2023-01-13T03:00:28.330Z,1.70
2023-01-13T03:01:28.399Z,0.80
2023-01-13T03:02:28.358Z,1.00
2023-01-13T03:03:28.285Z,1.00
2023-01-13T03:04:28.288Z,0.90
2023-01-13T03:05:28.286Z,0.90
2023-01-13T03:06:28.252Z,1.30
2023-01-13T03:07:28.236Z,2.50
2023-01-13T03:08:28.224Z,0.30
2023-01-13T03:09:28.225Z,0.90
2023-01-13T03:10:28.203Z,2.10
2023-01-13T03:11:28.191Z,0.90
2023-01-13T03:12:28.173Z,0.90
2023-01-13T03:13:28.153Z,1.70
2023-01-13T03:14:28.162Z,0.70
2023-01-13T03:15:28.129Z,1.10
2023-01-13T03:16:28.161Z,1.30
2023-01-13T03:17:28.110Z,0.90
2023-01-13T03:18:28.092Z,1.90
2023-01-13T03:19:28.090Z,1.60
2023-01-13T03:20:28.063Z,1.20
2023-01-13T03:21:28.078Z,0.70
2023-01-13T03:22:28.041Z,1.00
2023-01-13T03:23:28.031Z,1.10
2023-01-13T03:24:28.034Z,1.40
2023-01-13T03:25:28.000Z,0.80
2023-01-13T03:26:27.995Z,0.80
2023-01-13T03:27:27.981Z,1.50
2023-01-13T03:28:27.967Z,1.00
2023-01-13T03:29:27.966Z,1.10
2023-01-13T03:30:27.977Z,1.90
2023-01-13T03:31:27.921Z,1.30
2023-01-13T03:32:27.912Z,1.50
2023-01-13T03:33:27.901Z,1.70
2023-01-13T03:34:29.734Z,1.50
2023-01-13T03:35:27.869Z,1.10
2023-01-13T03:36:27.860Z,0.70
2023-01-13T03:37:27.874Z,0.50
2023-01-13T03:38:27.839Z,2.50
2023-01-13T03:39:27.836Z,1.40
2023-01-13T03:40:27.814Z,0.80
2023-01-13T03:41:27.850Z,0.50
2023-01-13T03:42:27.780Z,1.50
2023-01-13T03:43:27.777Z,1.00
2023-01-13T03:44:27.766Z,0.90
2023-01-13T03:45:27.742Z,0.80
2023-01-13T03:46:27.724Z,1.20
2023-01-13T03:47:27.722Z,1.00
2023-01-13T03:48:27.707Z,0.80
2023-01-13T03:49:27.712Z,0.90
2023-01-13T03:50:27.686Z,0.80
2023-01-13T03:51:27.670Z,0.80
2023-01-13T03:52:27.653Z,1.20
2023-01-13T03:53:27.663Z,0.40
2023-01-13T03:54:27.650Z,1.20
2023-01-13T03:55:27.619Z,1.00
2023-01-13T03:56:27.599Z,1.60
2023-01-13T03:57:27.587Z,1.10
2023-01-13T03:58:27.605Z,0.90
2023-01-13T03:59:27.560Z,1.30
2023-01-13T04:00:27.563Z,1.60
2023-01-13T04:01:27.616Z,1.40
2023-01-13T04:02:27.524Z,1.10
2023-01-13T04:03:27.554Z,0.70
2023-01-13T04:04:27.495Z,0.90
2023-01-13T04:05:27.497Z,0.50
2023-01-13T04:06:27.467Z,1.70
2023-01-13T04:07:27.459Z,1.00
2023-01-13T04:08:27.447Z,0.80
2023-01-13T04:09:27.485Z,1.70
2023-01-13T04:10:27.431Z,1.40
2023-01-13T04:11:27.409Z,1.60
2023-01-13T04:12:27.403Z,1.10
2023-01-13T04:13:27.386Z,1.20
2023-01-13T04:14:27.372Z,0.70
2023-01-13T04:15:27.472Z,0.70
2023-01-13T04:16:27.350Z,1.70
2023-01-13T04:17:27.331Z,2.80
2023-01-13T04:18:27.318Z,0.50
2023-01-13T04:19:27.301Z,0.70
2023-01-13T04:20:27.309Z,2.80
2023-01-13T04:21:27.276Z,0.90
2023-01-13T04:22:27.269Z,1.30
2023-01-13T04:23:27.253Z,1.00
2023-01-13T04:24:27.262Z,1.10
2023-01-13T04:25:27.271Z,1.40
2023-01-13T04:26:27.214Z,1.20
2023-01-13T04:27:27.204Z,1.10
2023-01-13T04:28:27.183Z,0.60
2023-01-13T04:29:27.182Z,0.60
2023-01-13T04:30:27.186Z,1.60
2023-01-13T04:31:27.185Z,0.90
2023-01-13T04:32:27.134Z,1.00
2023-01-13T04:33:27.126Z,0.80
2023-01-13T04:34:28.486Z,1.20
2023-01-13T04:35:27.115Z,1.50
2023-01-13T04:36:27.087Z,1.30
2023-01-13T04:37:27.074Z,2.80
2023-01-13T04:38:27.063Z,0.50
2023-01-13T04:39:27.047Z,0.80
2023-01-13T04:40:27.062Z,1.50
2023-01-13T04:41:27.048Z,1.40
2023-01-13T04:42:27.006Z,0.80
2023-01-13T04:43:27.009Z,1.00
2023-01-13T04:44:26.980Z,0.60
2023-01-13T04:45:26.984Z,0.90
2023-01-13T04:46:26.966Z,2.40
2023-01-13T04:47:26.946Z,1.40
2023-01-13T04:48:26.931Z,2.60
2023-01-13T04:49:26.917Z,1.50
2023-01-13T04:50:26.933Z,0.40
2023-01-13T04:51:26.996Z,2.40
2023-01-13T04:52:26.876Z,0.80
2023-01-13T04:53:26.866Z,0.80
2023-01-13T04:54:26.853Z,1.20
2023-01-13T04:55:26.853Z,1.00
2023-01-13T04:56:26.829Z,1.30
2023-01-13T04:57:26.837Z,0.60
2023-01-13T04:58:26.807Z,1.30
2023-01-13T04:59:26.793Z,1.60
2023-01-13T05:00:26.788Z,0.80
2023-01-13T05:01:26.902Z,1.00
2023-01-13T05:02:26.745Z,0.70
2023-01-13T05:03:26.760Z,0.50
2023-01-13T05:04:26.752Z,0.60
2023-01-13T05:05:26.738Z,0.90
2023-01-13T05:06:26.707Z,2.00
2023-01-13T05:07:26.678Z,1.00
2023-01-13T05:08:26.675Z,1.70
2023-01-13T05:09:26.656Z,1.40
2023-01-13T05:10:26.655Z,0.80
2023-01-13T05:11:26.630Z,0.60
2023-01-13T05:12:26.612Z,1.10
2023-01-13T05:13:26.617Z,0.70
2023-01-13T05:14:26.605Z,0.70
2023-01-13T05:15:26.587Z,0.60
2023-01-13T05:16:26.752Z,1.90
2023-01-13T05:17:26.557Z,1.30
2023-01-13T05:18:26.554Z,1.00
2023-01-13T05:19:26.521Z,2.20
2023-01-13T05:20:26.540Z,1.60
2023-01-13T05:21:26.554Z,1.00
2023-01-13T05:22:26.491Z,0.90
2023-01-13T05:23:26.470Z,1.50
2023-01-13T05:24:26.454Z,1.60
2023-01-13T05:25:26.465Z,1.10
2023-01-13T05:26:26.547Z,0.50
2023-01-13T05:27:26.421Z,1.00
2023-01-13T05:28:26.401Z,1.10
2023-01-13T05:29:26.413Z,1.00
2023-01-13T05:30:26.378Z,1.30
2023-01-13T05:31:26.440Z,0.90
2023-01-13T05:32:26.349Z,1.30
2023-01-13T05:33:26.339Z,1.40
2023-01-13T05:34:26.326Z,1.50
2023-01-13T05:35:26.334Z,1.30
2023-01-13T05:36:26.308Z,1.60
2023-01-13T05:37:26.282Z,1.60
2023-01-13T05:38:26.263Z,0.80
2023-01-13T05:39:26.258Z,1.10
2023-01-13T05:40:26.239Z,0.50
2023-01-13T05:41:26.244Z,1.50
2023-01-13T05:42:26.214Z,1.90
2023-01-13T05:43:26.208Z,1.10
2023-01-13T05:44:26.195Z,0.70
2023-01-13T05:45:26.206Z,2.40
2023-01-13T05:46:26.215Z,1.70
2023-01-13T05:47:26.149Z,1.40
2023-01-13T05:48:26.135Z,1.70
2023-01-13T05:49:26.129Z,0.70
2023-01-13T05:50:26.112Z,2.20
2023-01-13T05:51:26.256Z,2.50
2023-01-13T05:52:26.090Z,1.10
2023-01-13T05:53:26.088Z,1.30
2023-01-13T05:54:26.056Z,1.20
2023-01-13T05:55:26.042Z,0.70
2023-01-13T05:56:26.046Z,1.70
2023-01-13T05:57:26.023Z,1.70
2023-01-13T05:58:26.014Z,1.00
2023-01-13T05:59:25.999Z,1.70
2023-01-13T06:00:25.975Z,1.60
2023-01-13T06:01:26.049Z,2.00
2023-01-13T06:02:25.952Z,1.00
2023-01-13T06:03:25.944Z,2.10
2023-01-13T06:04:25.940Z,1.30
2023-01-13T06:05:25.914Z,1.60
2023-01-13T06:06:25.916Z,2.20
2023-01-13T06:07:25.892Z,1.90
2023-01-13T06:08:25.878Z,1.50
2023-01-13T06:09:25.864Z,2.90
2023-01-13T06:10:25.849Z,0.50
2023-01-13T06:11:25.850Z,0.30
2023-01-13T06:12:25.857Z,0.30
2023-01-13T06:13:25.835Z,1.00
2023-01-13T06:14:25.800Z,0.80
2023-01-13T06:15:25.797Z,0.50
2023-01-13T06:16:25.866Z,1.00
2023-01-13T06:17:25.781Z,0.90
2023-01-13T06:18:25.746Z,2.20
2023-01-13T06:19:25.738Z,0.70
2023-01-13T06:20:25.722Z,1.00
2023-01-13T06:21:25.723Z,1.50
2023-01-13T06:22:25.700Z,0.50
2023-01-13T06:23:25.713Z,1.40
2023-01-13T06:24:25.669Z,3.30
2023-01-13T06:25:25.659Z,2.30
2023-01-13T06:26:25.656Z,1.30
2023-01-13T06:27:25.649Z,2.60
2023-01-13T06:28:25.620Z,2.90
2023-01-13T06:29:25.610Z,3.60
2023-01-13T06:30:25.593Z,6.00
2023-01-13T06:31:25.610Z,2.00
2023-01-13T06:32:25.587Z,3.10
2023-01-13T06:33:25.579Z,2.80
2023-01-13T06:34:25.544Z,2.90
2023-01-13T06:35:25.531Z,2.60
2023-01-13T06:36:25.523Z,1.50
2023-01-13T06:37:25.523Z,2.60
2023-01-13T06:38:25.494Z,1.50
2023-01-13T06:39:25.496Z,3.50
2023-01-13T06:40:25.471Z,3.40
2023-01-13T06:41:25.455Z,3.10
2023-01-13T06:42:25.452Z,1.10
2023-01-13T06:43:25.428Z,5.70
2023-01-13T06:44:25.423Z,2.30
2023-01-13T06:45:25.403Z,2.30
2023-01-13T06:46:25.424Z,2.10
2023-01-13T06:47:25.399Z,2.30
2023-01-13T06:48:25.375Z,2.50
2023-01-13T06:49:25.376Z,1.20
2023-01-13T06:50:25.343Z,3.10
2023-01-13T06:51:25.332Z,4.00
2023-01-13T06:52:25.326Z,3.00
2023-01-13T06:53:25.299Z,1.40
2023-01-13T06:54:27.644Z,0.90
2023-01-13T06:55:25.273Z,1.00
2023-01-13T06:56:25.255Z,1.50
2023-01-13T06:57:25.264Z,1.20
2023-01-13T06:58:25.247Z,2.00
2023-01-13T06:59:25.241Z,2.20
2023-01-13T07:00:25.214Z,1.60
2023-01-13T07:01:25.361Z,2.50
2023-01-13T07:02:25.359Z,2.10
2023-01-13T07:03:25.170Z,3.50
2023-01-13T07:04:25.170Z,2.80
2023-01-13T07:05:25.198Z,2.90
2023-01-13T07:06:25.160Z,3.20
2023-01-13T07:07:25.136Z,2.40
2023-01-13T07:08:25.138Z,2.60
2023-01-13T07:09:25.109Z,1.10
2023-01-13T07:10:25.074Z,2.40
2023-01-13T07:11:25.061Z,2.40
2023-01-13T07:12:25.082Z,2.30
2023-01-13T07:13:25.048Z,1.90
2023-01-13T07:14:25.026Z,2.00
2023-01-13T07:15:25.016Z,1.10
2023-01-13T07:16:25.079Z,1.20
2023-01-13T07:17:25.035Z,2.90
2023-01-13T07:18:24.984Z,1.90
2023-01-13T07:19:24.969Z,1.20
2023-01-13T07:20:24.950Z,1.20
2023-01-13T07:21:24.963Z,2.60
2023-01-13T07:22:24.946Z,1.10
2023-01-13T07:23:24.911Z,1.60
2023-01-13T07:24:24.893Z,2.50
2023-01-13T07:25:24.889Z,1.20
2023-01-13T07:26:24.867Z,2.40
2023-01-13T07:27:24.897Z,1.20
2023-01-13T07:28:24.857Z,1.90
2023-01-13T07:29:24.827Z,0.90
2023-01-13T07:30:24.816Z,2.00
2023-01-13T07:31:24.865Z,2.00
2023-01-13T07:32:24.792Z,0.90
2023-01-13T07:33:24.795Z,1.50
2023-01-13T07:34:24.761Z,1.30
2023-01-13T07:35:24.757Z,2.30
2023-01-13T07:36:24.738Z,2.20
2023-01-13T07:37:24.764Z,2.00
2023-01-13T07:38:24.741Z,1.90
2023-01-13T07:39:24.700Z,2.70
2023-01-13T07:40:24.687Z,1.70
2023-01-13T07:41:24.693Z,2.80
2023-01-13T07:42:24.662Z,1.70
2023-01-13T07:43:24.664Z,1.10
2023-01-13T07:44:24.633Z,1.20
2023-01-13T07:45:24.628Z,1.70
2023-01-13T07:46:24.610Z,1.30
2023-01-13T07:47:24.596Z,0.70
2023-01-13T07:48:24.597Z,2.10
2023-01-13T07:49:24.570Z,1.60
2023-01-13T07:50:24.562Z,1.40
2023-01-13T07:51:24.548Z,1.70
2023-01-13T07:52:24.534Z,1.20
2023-01-13T07:53:24.563Z,1.40
2023-01-13T07:54:35.107Z,2.60
2023-01-13T07:55:25.495Z,1.30
2023-01-13T07:56:24.476Z,1.10
2023-01-13T07:57:24.465Z,2.10
2023-01-13T07:58:24.467Z,1.80
2023-01-13T07:59:24.440Z,2.10
2023-01-13T08:00:24.429Z,1.30
2023-01-13T08:01:24.493Z,2.70
2023-01-13T08:02:24.590Z,1.70
2023-01-13T08:03:24.409Z,1.90
2023-01-13T08:04:24.374Z,1.90
2023-01-13T08:05:24.360Z,1.90
2023-01-13T08:06:24.349Z,1.80
2023-01-13T08:07:24.335Z,0.80
2023-01-13T08:08:24.337Z,1.20
2023-01-13T08:09:24.331Z,1.10
2023-01-13T08:10:24.301Z,1.60
2023-01-13T08:11:24.301Z,1.50
2023-01-13T08:12:24.278Z,1.70
2023-01-13T08:13:24.294Z,1.30
2023-01-13T08:14:24.245Z,1.40
2023-01-13T08:15:24.250Z,1.30
2023-01-13T08:16:24.289Z,1.30
2023-01-13T08:17:24.206Z,2.60
2023-01-13T08:18:24.224Z,1.70
2023-01-13T08:19:24.177Z,1.40
2023-01-13T08:20:24.166Z,1.60
2023-01-13T08:21:24.151Z,1.20
2023-01-13T08:22:24.140Z,1.60
2023-01-13T08:23:24.138Z,1.10
2023-01-13T08:24:25.017Z,3.20
2023-01-13T08:25:24.126Z,1.00
2023-01-13T08:26:24.086Z,1.00
2023-01-13T08:27:24.075Z,0.90
2023-01-13T08:28:24.107Z,1.80
2023-01-13T08:29:24.051Z,2.90
2023-01-13T08:30:24.036Z,3.30
2023-01-13T08:31:24.150Z,2.20
2023-01-13T08:32:24.010Z,2.00
2023-01-13T08:33:23.993Z,2.00
2023-01-13T08:34:23.999Z,1.40
2023-01-13T08:35:23.977Z,1.00
2023-01-13T08:36:23.957Z,1.40
2023-01-13T08:37:23.954Z,1.20
2023-01-13T08:38:23.935Z,1.60
2023-01-13T08:39:23.935Z,3.40
2023-01-13T08:40:23.914Z,2.40
2023-01-13T08:41:23.919Z,1.90
2023-01-13T08:42:23.883Z,1.60
2023-01-13T08:43:23.870Z,2.20
2023-01-13T08:44:23.870Z,1.80
2023-01-13T08:45:23.849Z,1.90
2023-01-13T08:46:23.869Z,2.60
2023-01-13T08:47:23.812Z,1.00
2023-01-13T08:48:23.800Z,2.10
2023-01-13T08:49:23.800Z,0.90
2023-01-13T08:50:23.775Z,1.50
2023-01-13T08:51:23.764Z,2.90
2023-01-13T08:52:23.759Z,2.40
2023-01-13T08:53:23.736Z,1.70
2023-01-13T08:54:23.744Z,1.80
2023-01-13T08:55:23.710Z,1.80
2023-01-13T08:56:23.699Z,1.40
2023-01-13T08:57:23.765Z,1.10
2023-01-13T08:58:23.676Z,2.20
2023-01-13T08:59:23.671Z,1.70
2023-01-13T09:00:23.647Z,0.60
2023-01-13T09:01:23.746Z,1.40
2023-01-13T09:02:23.675Z,1.30
2023-01-13T09:03:23.606Z,1.30
2023-01-13T09:04:23.773Z,1.10
2023-01-13T09:05:23.582Z,2.60
2023-01-13T09:06:23.569Z,3.30
2023-01-13T09:07:23.558Z,1.10
2023-01-13T09:08:23.541Z,2.30
2023-01-13T09:09:23.540Z,1.40
2023-01-13T09:10:23.570Z,1.40
2023-01-13T09:11:23.516Z,1.50
2023-01-13T09:12:23.493Z,1.70
2023-01-13T09:13:23.508Z,2.60
2023-01-13T09:14:23.484Z,2.90
2023-01-13T09:15:23.459Z,1.30
2023-01-13T09:16:23.437Z,1.60
2023-01-13T09:17:23.425Z,2.20
2023-01-13T09:18:23.436Z,2.40
2023-01-13T09:19:23.410Z,1.40
2023-01-13T09:20:23.423Z,2.60
2023-01-13T09:21:23.375Z,1.50
2023-01-13T09:22:23.360Z,1.70
2023-01-13T09:23:23.345Z,2.50
2023-01-13T09:24:23.347Z,2.40
2023-01-13T09:25:23.318Z,3.40
2023-01-13T09:26:23.309Z,2.60
2023-01-13T09:27:23.303Z,2.10
2023-01-13T09:28:23.389Z,3.00
2023-01-13T09:29:23.313Z,1.70
2023-01-13T09:30:23.313Z,2.00
2023-01-13T09:31:23.277Z,2.40
2023-01-13T09:32:23.233Z,1.70
2023-01-13T09:33:23.233Z,3.40
2023-01-13T09:34:23.228Z,2.50
2023-01-13T09:35:23.201Z,2.80
2023-01-13T09:36:23.186Z,2.10
2023-01-13T09:37:23.175Z,2.60
2023-01-13T09:38:23.182Z,2.50
2023-01-13T09:39:23.224Z,1.10
2023-01-13T09:40:23.127Z,2.00
2023-01-13T09:41:23.114Z,3.20
2023-01-13T09:42:23.097Z,1.60
2023-01-13T09:43:23.093Z,2.40
2023-01-13T09:44:23.078Z,2.30
2023-01-13T09:45:23.103Z,2.90
2023-01-13T09:46:23.092Z,2.20
2023-01-13T09:47:23.047Z,1.50
2023-01-13T09:48:23.036Z,3.10
2023-01-13T09:49:23.048Z,2.20
2023-01-13T09:50:23.032Z,2.00
2023-01-13T09:51:23.039Z,0.90
2023-01-13T09:52:25.096Z,2.80
2023-01-13T09:53:22.958Z,1.60
2023-01-13T09:54:22.946Z,1.90
2023-01-13T09:55:22.971Z,1.40
2023-01-13T09:56:22.919Z,2.00
2023-01-13T09:57:22.908Z,1.40
2023-01-13T09:58:22.893Z,1.70
2023-01-13T09:59:22.885Z,2.00
2023-01-13T10:00:22.887Z,2.10
2023-01-13T10:01:22.950Z,2.30
2023-01-13T10:02:22.840Z,1.80
2023-01-13T10:03:22.968Z,2.10
2023-01-13T10:04:22.837Z,2.50
2023-01-13T10:05:22.814Z,2.40
2023-01-13T10:06:22.789Z,2.50
2023-01-13T10:07:23.712Z,2.80
2023-01-13T10:08:22.767Z,3.20
2023-01-13T10:09:22.753Z,2.20
2023-01-13T10:10:22.754Z,2.70
2023-01-13T10:11:22.721Z,4.10
2023-01-13T10:12:22.709Z,1.70
2023-01-13T10:13:22.698Z,2.80
2023-01-13T10:14:22.683Z,2.90
2023-01-13T10:15:22.682Z,2.70
2023-01-13T10:16:22.752Z,2.80
2023-01-13T10:17:22.661Z,3.10
2023-01-13T10:18:22.633Z,3.00
2023-01-13T10:19:22.628Z,3.30
2023-01-13T10:20:22.616Z,1.90
2023-01-13T10:21:22.588Z,4.70
2023-01-13T10:22:22.572Z,2.20
2023-01-13T10:23:22.561Z,4.50
2023-01-13T10:24:22.558Z,2.90
2023-01-13T10:25:22.544Z,2.90
2023-01-13T10:26:22.552Z,3.00
2023-01-13T10:27:22.509Z,1.10
2023-01-13T10:28:22.499Z,2.40
2023-01-13T10:29:22.489Z,2.10
2023-01-13T10:30:22.489Z,3.30
2023-01-13T10:31:22.582Z,3.20
2023-01-13T10:32:22.460Z,2.70
2023-01-13T10:33:22.459Z,2.70
2023-01-13T10:34:22.423Z,2.20
2023-01-13T10:35:22.421Z,2.50
2023-01-13T10:36:22.398Z,2.10
2023-01-13T10:37:22.407Z,2.60
2023-01-13T10:38:22.384Z,3.30
2023-01-13T10:39:22.353Z,2.80
2023-01-13T10:40:22.358Z,3.60
2023-01-13T10:41:22.324Z,2.20
2023-01-13T10:42:22.316Z,3.10
2023-01-13T10:43:22.296Z,2.90
2023-01-13T10:44:22.294Z,3.00
2023-01-13T10:45:22.289Z,3.10
2023-01-13T10:46:22.319Z,3.30
2023-01-13T10:47:22.246Z,2.90
2023-01-13T10:48:22.238Z,2.90
2023-01-13T10:49:22.250Z,2.60
2023-01-13T10:50:22.228Z,2.40
2023-01-13T10:51:22.190Z,2.30
2023-01-13T10:52:22.236Z,2.30
2023-01-13T10:53:22.167Z,3.70
2023-01-13T10:54:22.159Z,3.40
2023-01-13T10:55:22.162Z,4.20
2023-01-13T10:56:22.139Z,3.30
2023-01-13T10:57:22.117Z,3.10
2023-01-13T10:58:22.112Z,3.40
2023-01-13T10:59:22.091Z,2.50
2023-01-13T11:00:22.098Z,2.50
2023-01-13T11:01:22.192Z,2.10
2023-01-13T11:02:26.719Z,4.10
2023-01-13T11:03:23.043Z,2.30
2023-01-13T11:04:22.094Z,5.50
2023-01-13T11:05:22.046Z,2.80
2023-01-13T11:06:22.018Z,2.70
2023-01-13T11:07:21.985Z,4.40
2023-01-13T11:08:21.978Z,3.20
2023-01-13T11:09:21.965Z,2.80
2023-01-13T11:10:21.957Z,2.20
2023-01-13T11:11:21.963Z,2.50
2023-01-13T11:12:21.926Z,1.20
2023-01-13T11:13:21.905Z,4.00
2023-01-13T11:14:21.894Z,3.40
2023-01-13T11:15:21.891Z,3.60
2023-01-13T11:16:21.926Z,3.90
2023-01-13T11:17:21.862Z,4.50
2023-01-13T11:18:21.843Z,2.70
2023-01-13T11:19:21.835Z,3.30
2023-01-13T11:20:21.819Z,3.30
2023-01-13T11:21:21.837Z,4.40
2023-01-13T11:22:21.803Z,2.80
2023-01-13T11:23:21.777Z,3.20
2023-01-13T11:24:21.769Z,2.00
2023-01-13T11:25:21.751Z,4.10
2023-01-13T11:26:21.761Z,2.70
2023-01-13T11:27:21.728Z,4.30
2023-01-13T11:28:21.714Z,2.60
2023-01-13T11:29:21.707Z,3.40
2023-01-13T11:30:21.701Z,4.80
2023-01-13T11:31:21.735Z,4.00
2023-01-13T11:32:21.667Z,4.20
2023-01-13T11:33:21.650Z,3.20
2023-01-13T11:34:21.644Z,4.70
2023-01-13T11:35:21.619Z,3.90
2023-01-13T11:36:21.624Z,3.30
2023-01-13T11:37:21.612Z,4.00
2023-01-13T11:38:21.586Z,4.20
2023-01-13T11:39:21.571Z,4.60
2023-01-13T11:40:21.555Z,4.00
2023-01-13T11:41:21.560Z,3.80
2023-01-13T11:42:21.533Z,4.50
2023-01-13T11:43:21.519Z,5.60
2023-01-13T11:44:21.508Z,4.20
2023-01-13T11:45:21.488Z,4.10
2023-01-13T11:46:21.527Z,3.50
2023-01-13T11:47:21.465Z,4.30
2023-01-13T11:48:21.457Z,2.70
2023-01-13T11:49:22.393Z,4.30
2023-01-13T11:50:21.426Z,3.80
2023-01-13T11:51:21.456Z,4.40
2023-01-13T11:52:21.407Z,6.80
2023-01-13T11:53:21.411Z,5.80
2023-01-13T11:54:21.380Z,2.50
2023-01-13T11:55:22.769Z,5.00
2023-01-13T11:56:21.350Z,3.40
2023-01-13T11:57:21.352Z,3.80
2023-01-13T11:58:21.326Z,3.10
2023-01-13T11:59:21.319Z,4.70
2023-01-13T12:00:21.324Z,3.90
2023-01-13T12:01:23.290Z,3.60
2023-01-13T12:02:21.446Z,5.20
2023-01-13T12:03:21.369Z,4.40
2023-01-13T12:04:21.245Z,4.90
2023-01-13T12:05:21.258Z,4.90
2023-01-13T12:06:21.246Z,4.10
2023-01-13T12:07:23.150Z,4.80
2023-01-13T12:08:21.197Z,4.70
2023-01-13T12:09:21.232Z,3.50
2023-01-13T12:10:21.197Z,4.90
2023-01-13T12:11:21.165Z,4.30
2023-01-13T12:12:21.166Z,5.00
2023-01-13T12:13:21.131Z,3.70
2023-01-13T12:14:21.127Z,4.50
2023-01-13T12:15:21.111Z,3.80
2023-01-13T12:16:21.146Z,3.40
2023-01-13T12:17:21.098Z,4.20
2023-01-13T12:18:21.066Z,5.20
2023-01-13T12:19:21.058Z,4.50
2023-01-13T12:20:21.044Z,4.30
2023-01-13T12:21:21.019Z,5.00
2023-01-13T12:22:21.055Z,4.80
2023-01-13T12:23:21.000Z,4.40
2023-01-13T12:24:20.985Z,5.00
2023-01-13T12:25:20.995Z,6.00
2023-01-13T12:26:20.964Z,4.50
2023-01-13T12:27:20.969Z,7.10
2023-01-13T12:28:21.066Z,6.80
2023-01-13T12:29:20.925Z,5.50
2023-01-13T12:30:20.910Z,5.10
2023-01-13T12:31:21.032Z,4.80
2023-01-13T12:32:20.940Z,6.20
2023-01-13T12:33:20.881Z,4.60
2023-01-13T12:34:20.874Z,5.00
2023-01-13T12:35:20.845Z,3.50
2023-01-13T12:36:20.829Z,4.30
2023-01-13T12:37:20.831Z,6.60
2023-01-13T12:38:20.810Z,4.50
2023-01-13T12:39:20.796Z,5.60
2023-01-13T12:40:20.776Z,5.20
2023-01-13T12:41:20.792Z,5.70
2023-01-13T12:42:20.765Z,5.50
2023-01-13T12:43:20.742Z,7.90
2023-01-13T12:44:20.721Z,6.50
2023-01-13T12:45:20.708Z,6.90
2023-01-13T12:46:20.691Z,4.80
2023-01-13T12:47:20.695Z,5.80
2023-01-13T12:48:20.679Z,6.10
2023-01-13T12:49:20.676Z,5.60
2023-01-13T12:50:20.642Z,5.50
2023-01-13T12:51:20.663Z,7.20
2023-01-13T12:52:20.632Z,8.20
2023-01-13T12:53:20.603Z,5.70
2023-01-13T12:54:20.588Z,6.50
2023-01-13T12:55:20.577Z,4.10
2023-01-13T12:56:20.576Z,5.10
2023-01-13T12:57:20.586Z,5.90
2023-01-13T12:58:20.541Z,6.60
2023-01-13T12:59:20.535Z,8.10
2023-01-13T13:00:20.512Z,4.80
2023-01-13T13:01:20.603Z,6.60
2023-01-13T13:02:20.678Z,7.80
2023-01-13T13:03:20.483Z,4.90
2023-01-13T13:04:20.470Z,4.30
2023-01-13T13:05:20.448Z,3.00
2023-01-13T13:06:20.432Z,4.90
2023-01-13T13:07:20.450Z,6.20
2023-01-13T13:08:20.407Z,5.00
2023-01-13T13:09:20.389Z,5.20
2023-01-13T13:10:20.375Z,3.70
2023-01-13T13:11:20.365Z,3.20
2023-01-13T13:12:20.380Z,5.70
2023-01-13T13:13:20.386Z,5.10
2023-01-13T13:14:20.320Z,5.30
2023-01-13T13:15:20.385Z,5.00
2023-01-13T13:16:20.363Z,5.20
2023-01-13T13:17:20.285Z,5.60
2023-01-13T13:18:20.284Z,5.30